Imperial Valley (TL50001) Station Data

Red Flag Warning: No
Fire Weather Zone: 262
SDGE Region: Mountain Empire
Lat/Lon: 32.745/-116.038

Observations

Time Wind Speed/Gust Temp(F) RH Fuel Moist Fuel Temp(F) Dewpt(F) Tmax(F) Tmin(F) Accum Precip 10-min Precip SL Press(mb)
3/29 8:00am 178 3 G 4 71° 12% - - 15° 72.1° 58.1° - - 1020.0
3/29 7:50am 212 4 G 5 69° 13% - - 16° 72.1° 58.1° - - 1020.0
3/29 7:40am 240 3 G 4 66° 14% - - 16° 72.1° 58.1° - - 1019.0
3/29 7:30am 263 2 G 3 65° 14% - - 15° 72.1° 58.1° - - 1019.0
3/29 7:20am 295 3 G 4 64° 14% - - 14° 72.1° 58.1° - - 1019.0
3/29 7:10am 259 4 G 5 66° 13% - - 14° 72.1° 58.1° - - 1019.0
3/29 7:00am 283 5 G 8 59° 16% - - 14° 72.1° 58.1° - - 1019.0
3/29 6:50am 288 5 G 7 59° 17% - - 13° 72.1° 58.1° - - 1019.0
3/29 6:40am 305 6 G 8 61° 15% - - 13° 72.1° 58.8° - - 1019.0
3/29 6:30am 316 5 G 8 63° 14% - - 13° 72.1° 58.8° - - 1018.0
3/29 6:20am 222 7 G 9 69° 11% - - 13° 72.1° 58.8° - - 1018.0
3/29 6:10am 218 8 G 10 68° 11% - - 12° 72.1° 58.8° - - 1018.0
3/29 6:00am 222 8 G 10 68° 11% - - 12° 72.1° 58.8° - - 1018.0
3/29 5:50am 220 7 G 9 68° 11% - - 12° 72.1° 58.8° - - 1018.0
3/29 5:40am 221 7 G 9 67° 12% - - 12° 72.1° 58.8° - - 1018.0
3/29 5:30am 240 6 G 8 65° 13% - - 13° 72.1° 58.8° - - 1018.0
3/29 5:20am 272 4 G 6 61° 15% - - 13° 72.1° 58.8° - - 1018.0
3/29 5:10am 281 6 G 8 60° 15% - - 13° 72.1° 58.8° - - 1018.0
3/29 5:00am 294 5 G 9 61° 15% - - 12° 72.1° 58.8° - - 1018.0
3/29 4:50am 234 6 G 8 69° 11% - - 12° 72.1° 61.6° - - 1018.0
3/29 4:40am 231 3 G 8 64° 13% - - 12° 72.1° 61.6° - - 1018.0
3/29 4:30am 301 4 G 7 63° 13% - - 12° 72.1° 61.6° - - 1018.0
3/29 4:20am 250 6 G 9 67° 12% - - 12° 72.1° 62.8° - - 1018.0
3/29 4:10am 240 7 G 10 70° 10% - - 12° 72.1° 62.8° - - 1018.0
3/29 4:00am 225 11 G 14 69° 11% - - 12° 71.9° 62.8° - - 1018.0
3/29 3:50am 227 9 G 11 67° 12% - - 12° 70.1° 62.8° - - 1018.0
3/29 3:40am 234 8 G 10 66° 12% - - 12° 70.1° 62.8° - - 1018.0
3/29 3:30am 246 7 G 9 65° 13% - - 12° 70.1° 62.8° - - 1018.0
3/29 3:20am 239 7 G 9 66° 12% - - 12° 70.1° 62.8° - - 1018.0
3/29 3:10am 241 7 G 9 65° 13% - - 12° 70.1° 62.8° - - 1018.0
3/29 3:00am 240 6 G 8 67° 12% - - 12° 70.1° 62.8° - - 1018.0
3/29 2:50am 233 8 G 9 67° 12% - - 12° 70.1° 62.8° - - 1018.0
3/29 2:40am 232 9 G 10 67° 12% - - 12° 70.1° 62.8° - - 1018.0
3/29 2:30am 227 8 G 9 67° 12% - - 13° 70.1° 62.8° - - 1018.0
3/29 2:20am 229 8 G 9 66° 12% - - 12° 70.1° 62.8° - - 1018.0
3/29 2:10am 230 7 G 8 66° 12% - - 12° 70.1° 62.8° - - 1018.0
3/29 2:00am 237 8 G 9 65° 13% - - 12° 70.1° 62.8° - - 1018.0
3/29 1:50am 242 6 G 9 66° 12% - - 12° 70.1° 62.8° - - 1018.0
3/29 1:40am 255 5 G 9 65° 13% - - 13° 70.1° 63.1° - - 1018.0
3/29 1:30am 276 3 G 6 65° 13% - - 13° 70.1° 64° - - 1019.0
3/29 1:20am 238 6 G 8 67° 12% - - 13° 70.1° 64.3° - - 1019.0
3/29 1:10am 239 6 G 8 68° 12% - - 13° 70.1° 64.3° - - 1018.0
3/29 1:00am 242 8 G 9 67° 12% - - 13° 70.1° 64.3° - - 1018.0
3/29 12:50am 238 7 G 9 67° 12% - - 13° 70.1° 64.3° - - 1018.0
3/29 12:40am 240 7 G 9 68° 12% - - 13° 70.1° 64.3° - - 1018.0
3/29 12:30am 246 8 G 10 66° 13% - - 14° 68.3° 64.3° - - 1019.0
3/29 12:20am 261 5 G 8 66° 13% - - 14° 68.3° 64.3° - - 1019.0
3/29 12:10am 267 6 G 10 66° 14% - - 15° 68.3° 64.3° - - 1019.0
3/29 12:00am 243 5 G 8 70° 11% - - 14° 78.7° 55° - - 1018.0
3/28 11:50pm 232 7 G 8 69° 13% - - 15° 78.7° 55° - - 1018.0
3/28 11:40pm 220 7 G 9 69° 13% - - 16° 78.7° 55° - - 1018.0
3/28 11:30pm 220 7 G 9 71° 12% - - 16° 78.7° 55° - - 1018.0
3/28 11:20pm 232 6 G 7 69° 13% - - 17° 78.7° 55° - - 1018.0
3/28 11:10pm 238 6 G 7 68° 15% - - 18° 78.7° 55° - - 1018.0
3/28 11:00pm 246 7 G 9 67° 15% - - 18° 78.7° 55° - - 1018.0
3/28 10:50pm 256 5 G 8 66° 17% - - 19° 78.7° 55° - - 1018.0
3/28 10:40pm 253 6 G 10 66° 16% - - 18° 78.7° 55° - - 1018.0
3/28 10:30pm 252 6 G 9 65° 16% - - 18° 78.7° 55° - - 1018.0
3/28 10:20pm 275 7 G 10 66° 17% - - 20° 78.7° 55° - - 1018.0
3/28 10:10pm 277 5 G 8 68° 19% - - 25° 78.7° 55° - - 1018.0
3/28 10:00pm 299 7 G 9 68° 19% - - 24° 78.7° 55° - - 1018.0
3/28 9:50pm 320 7 G 8 67° 18% - - 22° 78.7° 55° - - 1018.0
3/28 9:40pm 311 6 G 7 68° 14% - - 18° 78.7° 55° - - 1017.0
3/28 9:30pm 269 4 G 6 71° 15% - - 21° 78.7° 55° - - 1017.0
3/28 9:20pm 261 3 G 5 71° 12% - - 15° 78.7° 55° - - 1017.0
3/28 9:10pm 252 5 G 7 71° 10% - - 12° 78.7° 55° - - 1017.0
3/28 9:00pm 257 4 G 6 70° 10% - - 12° 78.7° 55° - - 1017.0
3/28 8:50pm 251 5 G 6 71° 10% - - 12° 78.7° 55° - - 1016.0
3/28 8:40pm 250 5 G 7 71° 10% - - 11° 78.7° 55° - - 1016.0
3/28 8:30pm 250 5 G 7 70° 10% - - 11° 78.7° 55° - - 1016.0
3/28 8:20pm 243 4 G 5 74° 9% - - 10° 78.7° 55° - - 1016.0
3/28 8:10pm 220 6 G 7 74° 8% - - 10° 78.7° 55° - - 1016.0
3/28 8:00pm 219 6 G 7 74° 8% - - 10° 78.7° 55° - - 1016.0
3/28 7:50pm 214 6 G 7 75° 8% - - 10° 78.7° 55° - - 1016.0
3/28 7:40pm 198 4 G 6 74° 8% - - 10° 78.7° 55° - - 1016.0
3/28 7:30pm 189 4 G 4 74° 8% - - 10° 78.7° 55° - - 1015.0
3/28 7:20pm 194 4 G 5 75° 8% - - 10° 78.7° 55° - - 1016.0
3/28 7:10pm 173 3 G 4 75° 8% - - 10° 78.7° 55° - - 1015.0
3/28 7:00pm 136 4 G 4 76° 8% - - 10° 78.7° 55° - - 1015.0
3/28 6:50pm 87 4 G 7 76° 8% - - 10° 78.7° 55° - - 1015.0
3/28 6:40pm 79 4 G 7 77° 8% - - 10° 78.7° 55° - - 1015.0
3/28 6:30pm 73 4 G 6 78° 7% - - 10° 78.7° 55° - - 1015.0
3/28 6:20pm 96 3 G 6 78° 7% - - 10° 78.7° 55° - - 1015.0
3/28 6:10pm 89 5 G 8 78° 8% - - 10° 78.7° 55° - - 1015.0
3/28 6:00pm 78 5 G 8 78° 7% - - 10° 78.7° 55° - - 1015.0
3/28 5:50pm 59 6 G 9 78° 7% - - 10° 78.7° 55° - - 1015.0
3/28 5:40pm 115 5 G 8 78° 8% - - 10° 78.7° 55° - - 1015.0
3/28 5:30pm 87 6 G 9 78° 8% - - 10° 78.7° 55° - - 1015.0
3/28 5:20pm 114 6 G 10 78° 7% - - 10° 78.7° 55° - - 1015.0
3/28 5:10pm 78 6 G 9 78° 7% - - 10° 78.7° 55° - - 1015.0
3/28 5:00pm 96 5 G 9 78° 7% - - 10° 78.7° 55° - - 1015.0
3/28 4:50pm 101 7 G 11 78° 7% - - 10° 78.7° 55° - - 1015.0
3/28 4:40pm 113 3 G 8 78° 7% - - 10° 78.6° 55° - - 1015.0
3/28 4:30pm 83 5 G 9 78° 7% - - 10° 78.6° 55° - - 1015.0
3/28 4:20pm 64 7 G 10 78° 7% - - 10° 78.6° 55° - - 1015.0
3/28 4:10pm 48 4 G 16 78° 7% - - 10° 78.6° 55° - - 1015.0
3/28 4:00pm 143 3 G 6 78° 7% - - 10° 78.6° 55° - - 1015.0
3/28 3:50pm 106 5 G 12 77° 7% - - 10° 78.2° 55° - - 1015.0
3/28 3:40pm 63 6 G 13 78° 7% - - 10° 78.2° 55° - - 1015.0
3/28 3:30pm 124 3 G 6 77° 7% - - 78.2° 55° - - 1015.0
3/28 3:20pm 138 3 G 6 77° 7% - - 77.9° 55° - - 1016.0
3/28 3:10pm 19 5 G 9 77° 7% - - 77.9° 55° - - 1016.0
3/28 3:00pm 30 6 G 10 77° 7% - - 77.9° 55° - - 1016.0
3/28 2:50pm 344 2 G 6 77° 7% - - 77.9° 55° - - 1016.0
3/28 2:40pm 22 9 G 14 77° 7% - - 77.9° 55° - - 1016.0
3/28 2:30pm 10 8 G 15 77° 8% - - 10° 77.9° 55° - - 1016.0
3/28 2:20pm 327 3 G 9 77° 8% - - 11° 77.9° 55° - - 1017.0
3/28 2:10pm 328 4 G 9 76° 8% - - 11° 77.9° 55° - - 1017.0
3/28 2:00pm 25 7 G 14 76° 8% - - 11° 77.9° 55° - - 1017.0
3/28 1:50pm 37 4 G 8 77° 8% - - 12° 77.9° 55° - - 1017.0
3/28 1:40pm 78 3 G 7 77° 8% - - 12° 77.8° 55° - - 1017.0
3/28 1:30pm 322 6 G 12 76° 9% - - 12° 76.4° 55° - - 1017.0
3/28 1:20pm 241 4 G 8 75° 9% - - 12° 76.2° 55° - - 1018.0
3/28 1:10pm 281 3 G 13 75° 9% - - 12° 76.2° 55° - - 1018.0
3/28 1:00pm 351 5 G 11 75° 9% - - 12° 75.9° 55° - - 1018.0
3/28 12:50pm 16 3 G 9 75° 9% - - 13° 75.9° 55° - - 1018.0
3/28 12:40pm 10 7 G 15 74° 9% - - 12° 75.9° 55° - - 1018.0
3/28 12:30pm 356 3 G 14 75° 9% - - 13° 75.9° 55° - - 1018.0
3/28 12:20pm 272 3 G 6 74° 10% - - 13° 74.8° 55° - - 1018.0
3/28 12:10pm 335 6 G 11 73° 10% - - 14° 74.8° 55° - - 1018.0
3/28 12:00pm 302 4 G 10 74° 10% - - 14° 74.8° 55° - - 1018.0
3/28 11:50am 343 3 G 6 73° 10% - - 13° 74° 55° - - 1019.0
3/28 11:40am 0 5 G 9 72° 10% - - 14° 73.4° 55° - - 1019.0
3/28 11:30am 340 7 G 14 72° 11% - - 14° 73.4° 55° - - 1019.0
3/28 11:20am 272 3 G 10 72° 11% - - 15° 73.4° 55° - - 1019.0
3/28 11:10am 288 2 G 6 73° 11% - - 15° 73.4° 55° - - 1019.0
3/28 11:00am 25 3 G 8 71° 12% - - 15° 71.9° 55° - - 1019.0
3/28 10:50am 345 4 G 9 71° 12% - - 15° 71.8° 55° - - 1019.0
3/28 10:40am 2 6 G 12 70° 12% - - 15° 71.8° 55° - - 1019.0
3/28 10:30am 335 4 G 11 71° 12% - - 15° 71.8° 55° - - 1019.0
3/28 10:20am 304 2 G 5 71° 12% - - 15° 71.8° 55° - - 1019.0
3/28 10:10am 350 4 G 11 69° 12% - - 15° 69.7° 55° - - 1019.0
3/28 10:00am 25 3 G 9 69° 13% - - 15° 69.5° 55° - - 1019.0
3/28 9:50am 35 6 G 11 68° 13% - - 15° 69.1° 55° - - 1019.0
3/28 9:40am 358 7 G 11 69° 13% - - 15° 69.1° 55° - - 1019.0
3/28 9:30am 355 7 G 13 68° 13% - - 15° 69.1° 55° - - 1019.0
3/28 9:20am 342 7 G 14 68° 13% - - 16° 69.1° 55° - - 1019.0
3/28 9:10am 347 4 G 9 68° 13% - - 16° 69.1° 55° - - 1019.0
3/28 9:00am 345 7 G 11 67° 14% - - 16° 69.1° 55° - - 1019.0
3/28 8:50am 332 6 G 11 67° 14% - - 16° 69.1° 55° - - 1019.0
3/28 8:40am 332 5 G 10 67° 14% - - 16° 69.1° 55° - - 1019.0
3/28 8:30am 274 2 G 6 68° 14% - - 17° 69.1° 55° - - 1019.0
3/28 8:20am 242 1 G 4 68° 15% - - 18° 68.7° 55° - - 1019.0
3/28 8:10am 296 3 G 5 66° 16% - - 19° 66.6° 55° - - 1019.0
3/28 8:00am 249 4 G 6 63° 20% - - 22° 65.6° 55° - - 1019.0
3/28 7:50am 246 6 G 7 61° 22% - - 23° 65.6° 55° - - 1019.0
3/28 7:40am 263 4 G 7 62° 21% - - 22° 65.6° 55° - - 1019.0
3/28 7:30am 270 5 G 8 60° 22% - - 21° 65.6° 55° - - 1019.0
3/28 7:20am 280 3 G 6 59° 24% - - 22° 65.6° 55° - - 1018.0
3/28 7:10am 227 3 G 6 59° 25% - - 23° 65.6° 55° - - 1018.0
3/28 7:00am 239 4 G 7 57° 27% - - 23° 65.6° 55° - - 1018.0
3/28 6:50am 250 5 G 8 57° 27% - - 23° 65.6° 55.3° - - 1018.0
3/28 6:40am 256 5 G 7 60° 24% - - 23° 65.6° 55.7° - - 1018.0
3/28 6:30am 250 6 G 8 60° 24% - - 23° 65.6° 55.7° - - 1018.0
3/28 6:20am 245 7 G 9 60° 25% - - 24° 65.6° 55.7° - - 1018.0
3/28 6:10am 246 3 G 5 62° 23% - - 23° 65.6° 55.7° - - 1017.0
3/28 6:00am 250 5 G 7 58° 27% - - 24° 65.6° 55.7° - - 1018.0